Share

Kotzebue, AK

11:13 PM AKDT on April 23, 2014 (GMT -0800)
Wien Memorial (PAOT) Elev 16 ft | 66.88 °N, 162.60 °W | Change Station

Current weather conditions updated 20 minutes ago

Clear
Clear
33 °F
Feels Like 33 °F
N
0
Wind Variable Wind from North
Sunrise 6:29 AM
Sunset 11:06 PM
Moon Waning Crescent

Tomorrow is forecast to be Cooler than today.

Pressure 29.71 in
Visibility 10.0 miles
Clouds Clear
Dew Point 29 °F
Humidity 85%
Rainfall 0.00 in
Snow Depth Not available.
UV 0 out of 16
Pollen Not available.
Air Quality Not available.
Flu Activity Sporadic
METAR PAOT 240653Z 00000KT 10SM CLR 01/M02 A2971 RMK AO2 SLP061 T00061017 $

More Conditions Fewer Conditions

Pressure 29.71 in
Visibility 10.0 miles
Clouds Clear
Dew Point 29 °F
Humidity 85%
Rainfall 0.00 in
Snow Depth Not available.
UV 0 out of 16
Pollen Not available.
Air Quality Not available.
Flu Activity Sporadic
METAR PAOT 240653Z 00000KT 10SM CLR 01/M02 A2971 RMK AO2 SLP061 T00061017 $

More Conditions Fewer Conditions

10-Day Weather Forecast

Almanac

Astronomy

Apr. 23, 2014 Rise Set
Actual Time 6:29 AM AKDT 11:06 PM AKDT
Civil Twilight 5:14 AM AKDT 12:22 AM AKDT
Nautical Twilight 3:18 AM AKDT 2:13 AM AKDT
Astronomical Twilight Sun does not rise Sun does not rise
Moon 5:45 AM AKDT (4/23) 2:59 PM AKDT (4/23)
Length of Visible Light 19h 08m
Length of Day
16h 37m
Tomorrow will be 7m 59s longer.
Waning Crescent, 28% of the Moon is Illuminated
Apr 24
Waning Crescent
Apr 29
New
May 6
First Quarter
May 14
Full
May 21
Last Quarter

Community

  • Stacked
    Stacked
  • clouds approaching Red Sox Nation
    clouds approaching Red Sox Nation
  • Balance
    Balance
  • Nestled In
    Nestled In
  • Stunning Sunrise
    Stunning Sunrise

WunderPhotos

Upload Photos

1,704,570 photos uploaded!

WunderBlogs® & News

Nearby

Snow Depth

Station Depth Elevation
Rocky Point 1 in 500 ft
Gobblers Knob 6 in 2030 ft
Coldfoot 21 in 1040 ft
Atigun Pass 37 in 4800 ft
Imnaviat Creek 26 in 3050 ft

Coastal Water Temperatures

Place Temperature
No Stations Reporting

Earthquake Activity

City Distance Mag. Time & Date
No recent earthquake activity has been reported nearby.
Minimum magnitude displayed is 2.5.

Nearby Weather Stations

There are no personal weather stations in this area.

What do you think?

We're not finished. Please let us know what you like, what you don't like, and what you are still missing.